Time;durP1;ratioP1;P1;durP2;ratioP2;P2;SDS_P1;SDS_P2;PMS_P1;PMS_P2;Temp;Humidity;BMP_temperature;BMP_pressure;BME280_temperature;BME280_humidity;BME280_pressure;Samples;Min_cycle;Max_cycle;Signal;HPM_P1;HPM_P2
2021/04/02 00:00:14;;;;;;;45.05;25.15;;;;;;;;;;5027560;28;20026;-82
2021/04/02 00:02:59;;;;;;;47.35;25.90;;;;;;;;;;5021656;28;20025;-82
2021/04/02 00:05:52;;;;;;;42.13;25.55;;;;;;;;;;5026810;28;20379;-83
2021/04/02 00:08:38;;;;;;;48.28;29.48;;;;;;;;;;5024122;28;20447;-83
2021/04/02 00:11:23;;;;;;;43.70;25.67;;;;;;;;;;5027347;28;20022;-83
2021/04/02 00:14:09;;;;;;;44.88;27.35;;;;;;;;;;5022290;28;20049;-83
2021/04/02 00:16:54;;;;;;;48.67;28.83;;;;;;;;;;5025783;28;20022;-83
2021/04/02 00:19:40;;;;;;;48.53;29.92;;;;;;;;;;5020279;28;20103;-83
2021/04/02 00:22:25;;;;;;;50.72;29.95;;;;;;;;;;5027006;28;20026;-83
2021/04/02 00:25:10;;;;;;;47.13;30.38;;;;;;;;;;5011008;28;20486;-83
2021/04/02 00:27:56;;;;;;;44.85;29.90;;;;;;;;;;5022422;28;20033;-83
2021/04/02 00:30:43;;;;;;;48.33;31.67;;;;;;;;;;5020873;28;20072;-83
2021/04/02 00:33:30;;;;;;;50.83;32.15;;;;;;;;;;5018996;28;20034;-83
2021/04/02 00:36:15;;;;;;;47.85;29.63;;;;;;;;;;5025547;28;20021;-83
2021/04/02 00:39:01;;;;;;;49.00;32.78;;;;;;;;;;5020578;28;20025;-83
2021/04/02 00:41:46;;;;;;;43.78;30.83;;;;;;;;;;5011676;28;20624;-84
2021/04/02 00:44:31;;;;;;;50.03;31.67;;;;;;;;;;5023850;28;20044;-84
2021/04/02 00:47:16;;;;;;;47.30;29.75;;;;;;;;;;5025110;28;20384;-83
2021/04/02 00:50:04;;;;;;;45.90;31.60;;;;;;;;;;5023750;28;20025;-83
2021/04/02 00:52:50;;;;;;;43.05;29.63;;;;;;;;;;5024937;28;20133;-82
2021/04/02 00:55:36;;;;;;;46.25;30.80;;;;;;;;;;5025142;28;20038;-82
2021/04/02 00:58:23;;;;;;;45.60;28.75;;;;;;;;;;5026217;28;20032;-83
2021/04/02 01:01:09;;;;;;;42.78;28.85;;;;;;;;;;5022739;28;20215;-83
2021/04/02 01:03:55;;;;;;;47.00;29.83;;;;;;;;;;5023139;28;20041;-83
2021/04/02 01:06:41;;;;;;;47.83;30.73;;;;;;;;;;5020056;28;20091;-83
2021/04/02 01:09:26;;;;;;;48.58;31.85;;;;;;;;;;5020344;28;20155;-83
2021/04/02 01:12:12;;;;;;;49.22;32.03;;;;;;;;;;5028287;28;20075;-83
2021/04/02 01:14:57;;;;;;;51.83;31.67;;;;;;;;;;5020214;28;20641;-83
2021/04/02 01:17:43;;;;;;;49.50;31.63;;;;;;;;;;5023928;28;20036;-83
2021/04/02 01:20:31;;;;;;;49.30;29.80;;;;;;;;;;5021677;28;20029;-83
2021/04/02 01:23:18;;;;;;;44.75;29.33;;;;;;;;;;5023499;28;20021;-83
2021/04/02 01:26:11;;;;;;;48.15;29.55;;;;;;;;;;5022561;28;20021;-83
2021/04/02 01:29:01;;;;;;;43.33;29.90;;;;;;;;;;5025546;28;20029;-83
2021/04/02 01:31:47;;;;;;;48.20;30.35;;;;;;;;;;5017433;28;20025;-83
2021/04/02 01:34:35;;;;;;;44.80;28.17;;;;;;;;;;5024305;28;20112;-82
2021/04/02 01:37:23;;;;;;;39.70;24.70;;;;;;;;;;5020036;28;20018;-83
2021/04/02 01:40:09;;;;;;;36.65;26.55;;;;;;;;;;5025989;28;20033;-84
2021/04/02 01:42:55;;;;;;;39.40;25.88;;;;;;;;;;5023015;28;20921;-83
2021/04/02 01:45:41;;;;;;;38.05;26.27;;;;;;;;;;5022804;28;20052;-83
2021/04/02 01:48:27;;;;;;;37.08;25.75;;;;;;;;;;5016563;28;20025;-84
2021/04/02 01:51:13;;;;;;;42.70;26.40;;;;;;;;;;5019371;28;20052;-83
2021/04/02 01:54:00;;;;;;;36.17;25.30;;;;;;;;;;5024528;28;20060;-83
2021/04/02 01:56:45;;;;;;;37.38;24.42;;;;;;;;;;5018750;28;20475;-83
2021/04/02 01:59:31;;;;;;;45.65;25.40;;;;;;;;;;5025087;28;20013;-83
2021/04/02 02:02:17;;;;;;;36.42;23.92;;;;;;;;;;5022004;28;20021;-83
2021/04/02 02:05:04;;;;;;;35.80;23.13;;;;;;;;;;5025122;28;20041;-83
2021/04/02 02:07:50;;;;;;;32.33;20.85;;;;;;;;;;5021405;28;20017;-84
2021/04/02 02:10:36;;;;;;;36.10;23.60;;;;;;;;;;5022564;28;20088;-83
2021/04/02 02:13:21;;;;;;;31.50;22.30;;;;;;;;;;5021643;28;20076;-84
2021/04/02 02:16:07;;;;;;;28.25;19.98;;;;;;;;;;5024229;28;20045;-83
2021/04/02 02:18:57;;;;;;;31.15;20.63;;;;;;;;;;5020821;28;20056;-83
2021/04/02 02:21:48;;;;;;;25.17;18.38;;;;;;;;;;5024593;28;20446;-83
2021/04/02 02:24:35;;;;;;;25.98;16.67;;;;;;;;;;5023729;28;20037;-83
2021/04/02 02:27:20;;;;;;;29.85;17.63;;;;;;;;;;5024603;28;20021;-83
2021/04/02 02:30:09;;;;;;;26.10;18.23;;;;;;;;;;5022916;28;20475;-83
2021/04/02 02:32:56;;;;;;;24.98;15.90;;;;;;;;;;5022148;28;20052;-83
2021/04/02 02:35:41;;;;;;;25.25;16.77;;;;;;;;;;5020284;28;20586;-83
2021/04/02 02:38:27;;;;;;;27.50;18.15;;;;;;;;;;5022317;28;20034;-82
2021/04/02 02:41:13;;;;;;;29.50;18.58;;;;;;;;;;5022647;28;20516;-83
2021/04/02 02:43:59;;;;;;;29.77;17.48;;;;;;;;;;5017535;28;20025;-83
2021/04/02 02:46:45;;;;;;;22.02;15.57;;;;;;;;;;5025076;28;20037;-83
2021/04/02 02:49:30;;;;;;;22.67;14.70;;;;;;;;;;5017234;28;20037;-83
2021/04/02 02:52:19;;;;;;;25.77;15.98;;;;;;;;;;5023136;28;20503;-83
2021/04/02 02:55:08;;;;;;;23.13;15.18;;;;;;;;;;5007680;28;20618;-83
2021/04/02 02:57:54;;;;;;;24.70;14.27;;;;;;;;;;5024278;28;20415;-83
2021/04/02 03:00:43;;;;;;;26.10;14.25;;;;;;;;;;5008393;28;20033;-82
2021/04/02 03:03:28;;;;;;;23.02;14.30;;;;;;;;;;5019069;28;20052;-81
2021/04/02 03:06:14;;;;;;;25.63;14.63;;;;;;;;;;5023662;28;20036;-82
2021/04/02 03:09:00;;;;;;;22.60;12.85;;;;;;;;;;5023054;28;20017;-82
2021/04/02 03:11:46;;;;;;;25.25;13.40;;;;;;;;;;5024540;28;20235;-82
2021/04/02 03:14:31;;;;;;;25.38;18.25;;;;;;;;;;5005068;28;20045;-82
2021/04/02 03:17:17;;;;;;;32.13;21.15;;;;;;;;;;5029237;28;20033;-82
2021/04/02 03:20:04;;;;;;;35.00;23.33;;;;;;;;;;5020864;28;20025;-82
2021/04/02 03:22:50;;;;;;;33.03;21.58;;;;;;;;;;5020581;28;20654;-82
2021/04/02 03:25:36;;;;;;;33.33;21.67;;;;;;;;;;5017240;28;20055;-82
2021/04/02 03:28:21;;;;;;;36.78;22.13;;;;;;;;;;5024113;28;20363;-82
2021/04/02 03:31:07;;;;;;;31.70;19.95;;;;;;;;;;5024102;28;20515;-82
2021/04/02 03:33:54;;;;;;;24.33;15.68;;;;;;;;;;5028340;28;20025;-82
2021/04/02 03:36:42;;;;;;;26.48;15.93;;;;;;;;;;5024450;28;20037;-83
2021/04/02 03:39:29;;;;;;;22.45;13.70;;;;;;;;;;5023121;28;20098;-83
2021/04/02 03:42:15;;;;;;;18.73;10.82;;;;;;;;;;5024026;28;20032;-82
2021/04/02 03:45:01;;;;;;;17.83;10.38;;;;;;;;;;5021003;28;20061;-82
2021/04/02 03:47:48;;;;;;;18.20;10.65;;;;;;;;;;5024401;28;20033;-81
2021/04/02 03:50:35;;;;;;;20.08;11.70;;;;;;;;;;5026023;28;20044;-81
2021/04/02 03:53:25;;;;;;;23.48;12.40;;;;;;;;;;5024836;28;20036;-81
2021/04/02 03:56:13;;;;;;;25.08;13.10;;;;;;;;;;5023457;28;20735;-82
2021/04/02 03:58:58;;;;;;;17.40;10.07;;;;;;;;;;5027473;28;20029;-82
2021/04/02 04:01:46;;;;;;;21.05;11.52;;;;;;;;;;5024830;28;20148;-82
2021/04/02 04:04:31;;;;;;;22.45;11.25;;;;;;;;;;5025094;28;20037;-82
2021/04/02 04:07:17;;;;;;;19.50;9.27;;;;;;;;;;5023211;28;20022;-83
2021/04/02 04:10:03;;;;;;;14.95;8.68;;;;;;;;;;5025486;28;20516;-83
2021/04/02 04:12:51;;;;;;;12.18;7.35;;;;;;;;;;5019327;28;20033;-82
2021/04/02 04:15:37;;;;;;;15.68;8.38;;;;;;;;;;5023631;28;20050;-82
2021/04/02 04:18:23;;;;;;;13.52;7.50;;;;;;;;;;5023887;28;20111;-82
2021/04/02 04:21:09;;;;;;;15.52;7.82;;;;;;;;;;5027219;28;20056;-82
2021/04/02 04:23:55;;;;;;;14.60;7.13;;;;;;;;;;5022756;28;20017;-82
2021/04/02 04:26:41;;;;;;;12.38;6.32;;;;;;;;;;5027419;28;20037;-83
2021/04/02 04:29:28;;;;;;;12.77;5.70;;;;;;;;;;5026490;28;20028;-83
2021/04/02 04:32:15;;;;;;;15.80;5.53;;;;;;;;;;5019130;28;20733;-83
2021/04/02 04:35:01;;;;;;;8.75;5.07;;;;;;;;;;5025594;28;20029;-82
2021/04/02 04:37:46;;;;;;;9.50;4.60;;;;;;;;;;5019789;28;20534;-82
2021/04/02 04:40:32;;;;;;;7.60;3.83;;;;;;;;;;5025338;28;20115;-82
2021/04/02 04:43:18;;;;;;;6.43;3.50;;;;;;;;;;5023373;28;20392;-82
2021/04/02 04:46:04;;;;;;;8.77;3.60;;;;;;;;;;5021868;28;20113;-83
2021/04/02 04:48:49;;;;;;;8.68;3.17;;;;;;;;;;5022887;28;20063;-82
2021/04/02 04:51:35;;;;;;;10.32;3.85;;;;;;;;;;5026328;28;20108;-83
2021/04/02 04:54:22;;;;;;;7.65;3.75;;;;;;;;;;5020267;28;20047;-83
2021/04/02 04:57:08;;;;;;;7.93;3.50;;;;;;;;;;5019237;28;20099;-82
2021/04/02 04:59:54;;;;;;;8.00;2.83;;;;;;;;;;5019971;28;20049;-82
2021/04/02 05:02:43;;;;;;;11.07;3.78;;;;;;;;;;5022962;28;20082;-82
2021/04/02 05:05:31;;;;;;;13.32;3.60;;;;;;;;;;5022993;28;20819;-82
2021/04/02 05:08:19;;;;;;;6.50;2.65;;;;;;;;;;5022162;28;20023;-85
2021/04/02 05:11:06;;;;;;;10.05;2.55;;;;;;;;;;5024921;28;20024;-81
2021/04/02 05:13:51;;;;;;;5.97;2.78;;;;;;;;;;5024946;28;20029;-81
2021/04/02 05:16:37;;;;;;;4.95;2.58;;;;;;;;;;5025677;28;20029;-82
2021/04/02 05:19:23;;;;;;;6.10;2.70;;;;;;;;;;5022945;28;20040;-82
2021/04/02 05:22:09;;;;;;;7.38;2.45;;;;;;;;;;5023173;28;20041;-83
2021/04/02 05:24:54;;;;;;;5.72;2.75;;;;;;;;;;5021602;28;20029;-83
2021/04/02 05:27:39;;;;;;;7.45;2.60;;;;;;;;;;5025838;28;20022;-82
2021/04/02 05:30:25;;;;;;;11.73;3.50;;;;;;;;;;5019873;28;20033;-82
2021/04/02 05:33:12;;;;;;;8.13;2.85;;;;;;;;;;5021611;28;20025;-81
2021/04/02 05:35:57;;;;;;;9.15;2.67;;;;;;;;;;5032406;28;20060;-82
2021/04/02 05:38:42;;;;;;;9.18;3.95;;;;;;;;;;5026094;28;20021;-83
2021/04/02 05:41:30;;;;;;;7.55;3.10;;;;;;;;;;5023891;28;20021;-82
2021/04/02 05:44:18;;;;;;;7.40;3.28;;;;;;;;;;5022585;28;20502;-82
2021/04/02 05:47:05;;;;;;;6.65;3.10;;;;;;;;;;5021445;28;20029;-83
2021/04/02 05:49:51;;;;;;;5.75;3.40;;;;;;;;;;5026580;28;20025;-83
2021/04/02 05:52:37;;;;;;;6.43;2.75;;;;;;;;;;5022728;28;20499;-83
2021/04/02 05:55:24;;;;;;;11.23;6.25;;;;;;;;;;5024068;28;20063;-84
2021/04/02 05:58:11;;;;;;;13.85;5.88;;;;;;;;;;5023745;28;20487;-82
2021/04/02 06:00:56;;;;;;;10.80;4.10;;;;;;;;;;5022776;28;20036;-82
2021/04/02 06:03:42;;;;;;;8.13;3.45;;;;;;;;;;5024500;28;20037;-82
2021/04/02 06:06:27;;;;;;;7.68;3.22;;;;;;;;;;5022560;28;20465;-82
2021/04/02 06:09:12;;;;;;;7.57;3.47;;;;;;;;;;5012348;28;20376;-83
2021/04/02 06:11:58;;;;;;;17.95;9.25;;;;;;;;;;5016392;28;20022;-82
2021/04/02 06:14:43;;;;;;;11.45;6.53;;;;;;;;;;5023564;28;20080;-83
2021/04/02 06:17:48;;;;;;;10.40;4.80;;;;;;;;;;5021680;28;20036;-83
2021/04/02 06:20:35;;;;;;;8.13;3.85;;;;;;;;;;5021634;28;20032;-83
2021/04/02 06:23:22;;;;;;;6.80;3.17;;;;;;;;;;5021271;28;20110;-82
2021/04/02 06:26:12;;;;;;;9.52;4.30;;;;;;;;;;5025085;28;20108;-82
2021/04/02 06:28:58;;;;;;;10.55;4.05;;;;;;;;;;5023519;28;20037;-83
2021/04/02 06:31:43;;;;;;;9.18;3.85;;;;;;;;;;5023671;28;20071;-83
2021/04/02 06:34:28;;;;;;;9.68;4.20;;;;;;;;;;5024405;28;20467;-83
2021/04/02 06:37:14;;;;;;;10.80;4.00;;;;;;;;;;5022526;28;20442;-83
2021/04/02 06:39:59;;;;;;;35.33;23.25;;;;;;;;;;5020950;28;20086;-83
2021/04/02 06:42:45;;;;;;;10.30;6.00;;;;;;;;;;5020510;28;20021;-83
2021/04/02 06:45:31;;;;;;;10.25;6.18;;;;;;;;;;5023572;28;20013;-83
2021/04/02 06:48:19;;;;;;;12.10;5.18;;;;;;;;;;5022480;28;20028;-82
2021/04/02 06:51:10;;;;;;;6.80;4.07;;;;;;;;;;5024900;28;20025;-83
2021/04/02 06:53:56;;;;;;;7.93;4.38;;;;;;;;;;5017295;28;20114;-83
2021/04/02 06:56:42;;;;;;;9.25;4.63;;;;;;;;;;5025083;28;20022;-84
2021/04/02 06:59:30;;;;;;;8.48;4.00;;;;;;;;;;5022742;28;20028;-82
2021/04/02 07:02:16;;;;;;;8.70;4.45;;;;;;;;;;5021275;28;20026;-83
2021/04/02 07:05:02;;;;;;;9.43;4.13;;;;;;;;;;5022563;28;20394;-83
2021/04/02 07:07:51;;;;;;;9.38;4.45;;;;;;;;;;5025333;28;20030;-82
2021/04/02 07:10:39;;;;;;;7.72;4.93;;;;;;;;;;5025788;28;20025;-82
2021/04/02 07:13:25;;;;;;;10.48;4.55;;;;;;;;;;5029141;28;20048;-83
2021/04/02 07:16:11;;;;;;;8.52;4.47;;;;;;;;;;5026447;28;20483;-84
2021/04/02 07:18:57;;;;;;;9.18;5.07;;;;;;;;;;5025794;28;20025;-83
2021/04/02 07:21:42;;;;;;;7.47;4.40;;;;;;;;;;5023078;28;20028;-83
2021/04/02 07:24:28;;;;;;;7.35;4.55;;;;;;;;;;5026324;28;20021;-83
2021/04/02 07:27:13;;;;;;;10.27;4.50;;;;;;;;;;5024050;28;20101;-83
2021/04/02 07:29:58;;;;;;;7.95;4.65;;;;;;;;;;5027772;28;20029;-83
2021/04/02 07:32:44;;;;;;;15.80;7.78;;;;;;;;;;5037179;28;20100;-85
2021/04/02 07:35:30;;;;;;;15.32;6.75;;;;;;;;;;5015216;28;20087;-85
2021/04/02 07:38:15;;;;;;;9.68;5.53;;;;;;;;;;5028714;28;20030;-84
2021/04/02 07:41:11;;;;;;;8.98;5.40;;;;;;;;;;5023177;28;20537;-84
2021/04/02 07:43:57;;;;;;;7.97;5.93;;;;;;;;;;5027937;28;20033;-85
2021/04/02 07:47:18;;;;;;;8.52;4.95;;;;;;;;;;5019183;28;20057;-85
2021/04/02 07:50:03;;;;;;;7.50;5.15;;;;;;;;;;4989305;28;20063;-83
2021/04/02 07:52:51;;;;;;;10.75;6.20;;;;;;;;;;5022829;28;20083;-84
2021/04/02 07:55:36;;;;;;;11.23;6.22;;;;;;;;;;5025283;28;20025;-83
2021/04/02 07:58:29;;;;;;;14.38;9.35;;;;;;;;;;5021810;28;20026;-84
2021/04/02 08:01:18;;;;;;;12.20;7.38;;;;;;;;;;5022446;28;20048;-85
2021/04/02 08:04:04;;;;;;;10.95;6.35;;;;;;;;;;5024792;28;20711;-84
2021/04/02 08:06:49;;;;;;;12.07;6.40;;;;;;;;;;5023897;28;20462;-85
2021/04/02 08:09:34;;;;;;;9.50;6.35;;;;;;;;;;5026112;28;20061;-84
2021/04/02 08:12:25;;;;;;;9.32;5.60;;;;;;;;;;5018787;28;20033;-84
2021/04/02 08:15:12;;;;;;;11.43;6.45;;;;;;;;;;5024872;28;20076;-85
2021/04/02 08:17:57;;;;;;;8.95;6.03;;;;;;;;;;5017876;28;20116;-84
2021/04/02 08:20:42;;;;;;;9.05;6.10;;;;;;;;;;5028480;28;20559;-84
2021/04/02 08:23:27;;;;;;;12.02;6.25;;;;;;;;;;5024820;28;20025;-85
2021/04/02 08:26:13;;;;;;;9.73;6.63;;;;;;;;;;5025796;28;20052;-85
2021/04/02 08:28:59;;;;;;;10.68;6.60;;;;;;;;;;5024293;28;20041;-84
2021/04/02 08:31:45;;;;;;;9.73;6.45;;;;;;;;;;5008533;28;20029;-83
2021/04/02 08:34:32;;;;;;;8.95;6.38;;;;;;;;;;5026358;28;20028;-84
2021/04/02 08:37:18;;;;;;;7.97;6.07;;;;;;;;;;5023994;28;20113;-85
2021/04/02 08:40:07;;;;;;;9.82;6.13;;;;;;;;;;5027488;28;20425;-85
2021/04/02 08:42:59;;;;;;;9.68;6.68;;;;;;;;;;5020969;28;20022;-84
2021/04/02 08:45:45;;;;;;;8.50;6.43;;;;;;;;;;5024492;28;20055;-85
2021/04/02 08:48:30;;;;;;;9.07;6.10;;;;;;;;;;5022568;28;20025;-84
2021/04/02 08:51:19;;;;;;;8.73;6.20;;;;;;;;;;5023963;28;20037;-83
2021/04/02 08:54:10;;;;;;;10.18;6.70;;;;;;;;;;5019951;28;20361;-85
2021/04/02 08:56:55;;;;;;;11.88;7.53;;;;;;;;;;5023447;28;20060;-85
2021/04/02 08:59:42;;;;;;;9.15;6.88;;;;;;;;;;5023272;28;20163;-85
2021/04/02 09:02:29;;;;;;;8.95;6.40;;;;;;;;;;5026306;28;20064;-82
2021/04/02 09:05:14;;;;;;;8.38;6.05;;;;;;;;;;5025468;28;20021;-83
2021/04/02 09:08:00;;;;;;;8.77;6.32;;;;;;;;;;5018334;28;20472;-83
2021/04/02 09:10:45;;;;;;;11.07;6.75;;;;;;;;;;5027520;28;20037;-83
2021/04/02 09:13:41;;;;;;;9.55;7.10;;;;;;;;;;5022085;28;20022;-84
2021/04/02 09:16:27;;;;;;;9.93;7.25;;;;;;;;;;5035803;28;20034;-84
2021/04/02 09:19:13;;;;;;;12.15;8.35;;;;;;;;;;5022907;28;20071;-83
2021/04/02 09:21:58;;;;;;;10.65;7.38;;;;;;;;;;5026167;28;20025;-82
2021/04/02 09:24:43;;;;;;;9.15;7.15;;;;;;;;;;5018456;28;20036;-82
2021/04/02 09:27:36;;;;;;;9.75;6.80;;;;;;;;;;5026756;28;20063;-80
2021/04/02 09:30:25;;;;;;;10.40;7.38;;;;;;;;;;5023358;28;20063;-82
2021/04/02 09:33:15;;;;;;;11.85;7.63;;;;;;;;;;5039699;28;20021;-82
2021/04/02 09:36:02;;;;;;;10.10;8.13;;;;;;;;;;5023770;28;20510;-83
2021/04/02 09:38:48;;;;;;;9.30;7.72;;;;;;;;;;5027584;28;20601;-83
2021/04/02 09:41:34;;;;;;;12.77;8.68;;;;;;;;;;5019642;28;20026;-83
2021/04/02 09:44:20;;;;;;;9.75;7.18;;;;;;;;;;5023773;28;20571;-82
2021/04/02 09:47:12;;;;;;;10.75;7.93;;;;;;;;;;5025623;28;20033;-82
2021/04/02 09:49:57;;;;;;;10.95;8.32;;;;;;;;;;5022338;28;20472;-82
2021/04/02 09:52:43;;;;;;;11.95;8.20;;;;;;;;;;5020914;28;20029;-82
2021/04/02 09:55:28;;;;;;;11.95;7.97;;;;;;;;;;5022976;28;20448;-82
2021/04/02 09:58:13;;;;;;;11.48;7.88;;;;;;;;;;5018353;28;20112;-83
2021/04/02 10:00:59;;;;;;;10.70;8.13;;;;;;;;;;5019750;28;20075;-81
2021/04/02 10:03:44;;;;;;;10.10;7.75;;;;;;;;;;5023892;28;20057;-84
2021/04/02 10:06:29;;;;;;;12.15;8.02;;;;;;;;;;5007748;28;20032;-84
2021/04/02 10:09:15;;;;;;;10.82;8.43;;;;;;;;;;5024572;28;20033;-83
2021/04/02 10:12:00;;;;;;;8.80;7.00;;;;;;;;;;5022565;28;20026;-83
2021/04/02 10:14:47;;;;;;;10.77;8.52;;;;;;;;;;5023702;28;20217;-83
2021/04/02 10:17:33;;;;;;;12.15;8.00;;;;;;;;;;5022234;28;20029;-83
2021/04/02 10:20:18;;;;;;;10.45;7.45;;;;;;;;;;5025066;28;20043;-83
2021/04/02 10:23:03;;;;;;;10.18;7.60;;;;;;;;;;5020814;28;20044;-83
2021/04/02 10:25:49;;;;;;;15.35;8.48;;;;;;;;;;5026929;28;20034;-83
2021/04/02 10:28:34;;;;;;;8.63;7.30;;;;;;;;;;5024347;28;20017;-83
2021/04/02 10:31:19;;;;;;;8.90;7.68;;;;;;;;;;5024213;28;20018;-84
2021/04/02 10:34:08;;;;;;;10.93;7.35;;;;;;;;;;5022840;28;20368;-83
2021/04/02 10:36:53;;;;;;;7.70;6.40;;;;;;;;;;5023585;28;20056;-83
2021/04/02 10:39:38;;;;;;;9.85;7.65;;;;;;;;;;5024357;28;20061;-84
2021/04/02 10:42:23;;;;;;;9.13;7.65;;;;;;;;;;5021020;28;20555;-83
2021/04/02 10:45:09;;;;;;;8.20;7.20;;;;;;;;;;5025541;28;20060;-85
2021/04/02 10:47:54;;;;;;;7.75;7.05;;;;;;;;;;5020091;28;20044;-83
2021/04/02 10:50:41;;;;;;;9.07;6.75;;;;;;;;;;5023302;28;20033;-84
2021/04/02 10:53:26;;;;;;;9.15;7.18;;;;;;;;;;5022689;28;20018;-85
2021/04/02 10:56:12;;;;;;;10.93;7.35;;;;;;;;;;5022061;28;20091;-84
2021/04/02 10:58:57;;;;;;;9.32;6.82;;;;;;;;;;5021789;28;20028;-84
2021/04/02 11:01:42;;;;;;;8.38;6.72;;;;;;;;;;5024274;28;20018;-84
2021/04/02 11:04:28;;;;;;;11.82;6.70;;;;;;;;;;5021375;28;20036;-84
2021/04/02 11:07:13;;;;;;;10.60;6.80;;;;;;;;;;5022945;28;20333;-84
2021/04/02 11:09:58;;;;;;;9.02;7.35;;;;;;;;;;5019843;28;20033;-84
2021/04/02 11:12:43;;;;;;;8.43;6.53;;;;;;;;;;5019862;28;20025;-83
2021/04/02 11:15:29;;;;;;;8.48;6.97;;;;;;;;;;5021786;28;20454;-83
2021/04/02 11:18:14;;;;;;;11.98;7.20;;;;;;;;;;5022716;28;20098;-83
2021/04/02 11:20:59;;;;;;;7.38;6.57;;;;;;;;;;5036479;28;20052;-83
2021/04/02 11:23:45;;;;;;;14.07;7.32;;;;;;;;;;5019585;28;20412;-82
2021/04/02 11:26:30;;;;;;;8.73;7.03;;;;;;;;;;5029577;28;20014;-82
2021/04/02 11:29:16;;;;;;;9.40;6.07;;;;;;;;;;5022561;28;20022;-83
2021/04/02 11:32:02;;;;;;;8.38;6.35;;;;;;;;;;5024910;28;20025;-83
2021/04/02 11:34:47;;;;;;;8.52;6.38;;;;;;;;;;5020442;28;20087;-82
2021/04/02 11:37:32;;;;;;;10.57;5.82;;;;;;;;;;5009094;28;20038;-83
2021/04/02 11:40:18;;;;;;;8.43;6.72;;;;;;;;;;5019371;28;20407;-83
2021/04/02 11:43:04;;;;;;;8.38;6.13;;;;;;;;;;5024213;28;20116;-85
2021/04/02 11:45:49;;;;;;;8.82;6.20;;;;;;;;;;5020614;28;20259;-84
2021/04/02 11:48:37;;;;;;;7.75;6.05;;;;;;;;;;5024444;28;20029;-84
2021/04/02 11:51:22;;;;;;;8.23;6.15;;;;;;;;;;5021290;28;20061;-83
2021/04/02 11:54:07;;;;;;;8.82;6.07;;;;;;;;;;5027224;28;20025;-83
2021/04/02 11:56:53;;;;;;;7.68;5.93;;;;;;;;;;5014219;28;20638;-84
2021/04/02 11:59:38;;;;;;;7.07;5.45;;;;;;;;;;5025890;28;20022;-84
2021/04/02 12:02:23;;;;;;;12.25;5.70;;;;;;;;;;5027065;28;20044;-84
2021/04/02 12:05:09;;;;;;;9.13;5.07;;;;;;;;;;5024720;28;20033;-84
2021/04/02 12:07:54;;;;;;;7.60;5.63;;;;;;;;;;5026844;28;20030;-83
2021/04/02 12:10:39;;;;;;;8.88;5.43;;;;;;;;;;5008285;28;20484;-84
2021/04/02 12:13:24;;;;;;;9.43;5.88;;;;;;;;;;5027979;28;20041;-84
2021/04/02 12:16:10;;;;;;;7.13;5.28;;;;;;;;;;5024278;28;20496;-85
2021/04/02 12:18:55;;;;;;;6.55;5.40;;;;;;;;;;5019555;28;20021;-84
2021/04/02 12:21:41;;;;;;;6.93;5.47;;;;;;;;;;5024727;28;20495;-84
2021/04/02 12:24:28;;;;;;;6.18;5.07;;;;;;;;;;5027368;28;20079;-84
2021/04/02 12:27:13;;;;;;;7.60;4.60;;;;;;;;;;5023409;28;20498;-82
2021/04/02 12:29:59;;;;;;;8.70;6.15;;;;;;;;;;5023000;28;20060;-82
2021/04/02 12:32:44;;;;;;;10.27;5.55;;;;;;;;;;5022970;28;20029;-83
2021/04/02 12:35:29;;;;;;;7.00;5.43;;;;;;;;;;5026969;28;20041;-83
2021/04/02 12:38:15;;;;;;;7.78;4.55;;;;;;;;;;5024356;28;20033;-83
2021/04/02 12:41:01;;;;;;;6.82;4.95;;;;;;;;;;5024242;28;20032;-86
2021/04/02 12:43:46;;;;;;;6.35;4.88;;;;;;;;;;5027947;28;20021;-84
2021/04/02 12:46:31;;;;;;;8.50;5.65;;;;;;;;;;5025033;28;20034;-83
2021/04/02 12:49:16;;;;;;;6.30;4.80;;;;;;;;;;5023753;28;20024;-83
2021/04/02 12:52:01;;;;;;;10.30;5.75;;;;;;;;;;5025016;28;20029;-83
2021/04/02 12:54:47;;;;;;;9.18;4.50;;;;;;;;;;5026080;28;20022;-83
2021/04/02 12:57:32;;;;;;;7.30;5.38;;;;;;;;;;5024640;28;20120;-83
2021/04/02 13:00:19;;;;;;;6.25;4.55;;;;;;;;;;5025940;28;20017;-83
2021/04/02 13:03:04;;;;;;;7.28;5.15;;;;;;;;;;5018394;28;20045;-83
2021/04/02 13:05:50;;;;;;;9.23;5.03;;;;;;;;;;5026076;28;20048;-84
2021/04/02 13:08:35;;;;;;;6.57;4.25;;;;;;;;;;5018079;28;20040;-84
2021/04/02 13:11:21;;;;;;;6.72;4.47;;;;;;;;;;5026881;28;20025;-84
2021/04/02 13:14:09;;;;;;;6.18;4.43;;;;;;;;;;5021141;28;20148;-84
2021/04/02 13:16:54;;;;;;;5.18;4.25;;;;;;;;;;5023782;28;20100;-82
2021/04/02 13:19:39;;;;;;;6.00;4.18;;;;;;;;;;5008442;28;20030;-83
2021/04/02 13:22:25;;;;;;;8.05;4.07;;;;;;;;;;5021976;28;20032;-84
2021/04/02 13:25:10;;;;;;;5.63;4.43;;;;;;;;;;5022477;28;20087;-83
2021/04/02 13:27:56;;;;;;;5.88;4.10;;;;;;;;;;5008236;28;20026;-83
2021/04/02 13:30:41;;;;;;;5.40;4.18;;;;;;;;;;5020816;28;20025;-83
2021/04/02 13:33:28;;;;;;;5.13;3.97;;;;;;;;;;5025035;28;20488;-83
2021/04/02 13:36:19;;;;;;;7.97;4.65;;;;;;;;;;5027274;28;20048;-83
2021/04/02 13:39:05;;;;;;;5.60;3.67;;;;;;;;;;5021620;28;20013;-83
2021/04/02 13:41:51;;;;;;;6.35;4.43;;;;;;;;;;5017921;28;20033;-83
2021/04/02 13:44:36;;;;;;;5.88;4.57;;;;;;;;;;5021753;28;20131;-84
2021/04/02 13:47:21;;;;;;;5.35;3.83;;;;;;;;;;5010400;28;20117;-84
2021/04/02 13:50:11;;;;;;;5.55;3.60;;;;;;;;;;5018014;28;20090;-83
2021/04/02 13:52:57;;;;;;;5.30;4.35;;;;;;;;;;5025653;28;20075;-84
2021/04/02 13:55:43;;;;;;;6.47;4.75;;;;;;;;;;5018133;28;20333;-84
2021/04/02 13:58:28;;;;;;;6.40;4.72;;;;;;;;;;5025840;28;20053;-84
2021/04/02 14:01:13;;;;;;;5.32;4.13;;;;;;;;;;5021555;28;20207;-84
2021/04/02 14:03:58;;;;;;;4.90;3.35;;;;;;;;;;5024147;28;20030;-84
2021/04/02 14:06:43;;;;;;;8.38;4.47;;;;;;;;;;5020908;28;20090;-83
2021/04/02 14:09:30;;;;;;;6.18;3.75;;;;;;;;;;5019955;28;20037;-84
2021/04/02 14:12:16;;;;;;;7.03;3.85;;;;;;;;;;5025743;28;20033;-84
2021/04/02 14:15:01;;;;;;;6.53;3.58;;;;;;;;;;5019082;28;20045;-84
2021/04/02 14:17:46;;;;;;;7.28;4.25;;;;;;;;;;5023045;28;20547;-85
2021/04/02 14:20:33;;;;;;;7.40;4.35;;;;;;;;;;5021811;28;20430;-82
2021/04/02 14:23:18;;;;;;;4.65;4.00;;;;;;;;;;5022736;28;20032;-82
2021/04/02 14:26:03;;;;;;;6.75;3.92;;;;;;;;;;5021701;28;20049;-83
2021/04/02 14:28:54;;;;;;;8.38;6.45;;;;;;;;;;5021256;28;20535;-83
2021/04/02 14:31:40;;;;;;;7.10;4.65;;;;;;;;;;5006417;28;20422;-82
2021/04/02 14:34:26;;;;;;;7.13;4.95;;;;;;;;;;5024429;28;20017;-81
2021/04/02 14:37:11;;;;;;;7.38;4.68;;;;;;;;;;5022179;28;20036;-82
2021/04/02 14:39:56;;;;;;;5.55;4.40;;;;;;;;;;5028450;28;20014;-82
2021/04/02 14:42:42;;;;;;;6.53;4.70;;;;;;;;;;5021734;28;20033;-82
2021/04/02 14:45:27;;;;;;;6.78;4.13;;;;;;;;;;5020371;28;20029;-82
2021/04/02 14:48:13;;;;;;;7.22;4.47;;;;;;;;;;5023570;28;20041;-83
2021/04/02 14:51:00;;;;;;;6.43;4.50;;;;;;;;;;5027636;28;20542;-82
2021/04/02 14:53:45;;;;;;;8.02;4.75;;;;;;;;;;5021449;28;20021;-83
2021/04/02 14:56:30;;;;;;;6.25;4.53;;;;;;;;;;5029650;28;20036;-82
2021/04/02 14:59:15;;;;;;;8.57;5.90;;;;;;;;;;5025440;28;20490;-82
2021/04/02 15:02:01;;;;;;;6.10;4.45;;;;;;;;;;5021454;28;20375;-83
2021/04/02 15:04:49;;;;;;;7.13;5.43;;;;;;;;;;5007075;28;20034;-82
2021/04/02 15:07:34;;;;;;;6.70;4.57;;;;;;;;;;5022366;28;20551;-82
2021/04/02 15:10:21;;;;;;;10.73;4.43;;;;;;;;;;5023482;28;20098;-82
2021/04/02 15:13:06;;;;;;;4.95;4.18;;;;;;;;;;5022074;28;20108;-81
2021/04/02 15:15:51;;;;;;;6.90;4.60;;;;;;;;;;5024309;28;20049;-81
2021/04/02 15:18:37;;;;;;;8.07;5.07;;;;;;;;;;5022093;28;20039;-82
2021/04/02 15:21:22;;;;;;;8.38;5.30;;;;;;;;;;5024508;28;20033;-82
2021/04/02 15:24:07;;;;;;;8.50;4.40;;;;;;;;;;5018817;28;20025;-82
2021/04/02 15:26:52;;;;;;;7.60;4.78;;;;;;;;;;5026717;28;20058;-82
2021/04/02 15:29:38;;;;;;;6.43;5.00;;;;;;;;;;5023864;28;20029;-82
2021/04/02 15:32:24;;;;;;;7.05;5.03;;;;;;;;;;5028089;28;20652;-85
2021/04/02 15:35:10;;;;;;;7.43;5.38;;;;;;;;;;5025078;28;20084;-82
2021/04/02 15:37:56;;;;;;;7.95;5.32;;;;;;;;;;5027911;28;20049;-82
2021/04/02 15:40:41;;;;;;;10.02;5.18;;;;;;;;;;5028332;28;20021;-82
2021/04/02 15:43:26;;;;;;;7.97;5.13;;;;;;;;;;5023468;28;20167;-84
2021/04/02 15:46:15;;;;;;;7.55;4.78;;;;;;;;;;5023918;28;20025;-83
2021/04/02 15:49:00;;;;;;;6.57;4.95;;;;;;;;;;5022270;28;20017;-84
2021/04/02 15:51:45;;;;;;;8.90;5.13;;;;;;;;;;5027740;28;20132;-82
2021/04/02 15:54:31;;;;;;;10.93;5.45;;;;;;;;;;5025560;28;20057;-82
2021/04/02 15:57:16;;;;;;;6.78;4.45;;;;;;;;;;5025255;28;20055;-83
2021/04/02 16:00:03;;;;;;;8.30;5.47;;;;;;;;;;5020778;28;20028;-83
2021/04/02 16:02:50;;;;;;;9.18;4.95;;;;;;;;;;5027392;28;20033;-83
2021/04/02 16:05:35;;;;;;;7.30;5.15;;;;;;;;;;5025366;28;20033;-82
2021/04/02 16:08:20;;;;;;;7.82;5.60;;;;;;;;;;5028083;28;20017;-83
2021/04/02 16:11:06;;;;;;;9.98;5.93;;;;;;;;;;5023243;28;20109;-83
2021/04/02 16:13:51;;;;;;;8.52;6.65;;;;;;;;;;5024488;28;20200;-85
2021/04/02 16:16:39;;;;;;;9.40;7.40;;;;;;;;;;5019358;28;20732;-85
2021/04/02 16:19:24;;;;;;;11.23;8.02;;;;;;;;;;5027770;28;20112;-84
2021/04/02 16:22:09;;;;;;;11.68;6.95;;;;;;;;;;5025289;28;20026;-83
2021/04/02 16:24:54;;;;;;;9.20;7.13;;;;;;;;;;5024609;28;20112;-84